PST,Max TemperatureF,Mean TemperatureF,Min TemperatureF,Max Dew PointF,MeanDew PointF,Min DewpointF,Max Humidity, Mean Humidity, Min Humidity, Max Sea Level PressureIn, Mean Sea Level PressureIn, Min Sea Level PressureIn, Max VisibilityMiles, Mean VisibilityMiles, Min VisibilityMiles, Max Wind SpeedMPH, Mean Wind SpeedMPH, Max Gust SpeedMPH,PrecipitationIn, CloudCover, Events, WindDirDegrees
2013-2-1,50,46,42,45,43,40,100,87,74,30.41,30.37,30.34,10,5,0,10,5,14,0.00,7,Fog,16
2013-2-2,46,39,31,42,37,30,100,88,76,30.38,30.30,30.26,9,4,0,10,4,15,0.00,6,Fog,49
2013-2-3,46,40,33,43,39,34,100,93,86,30.32,30.28,30.22,9,5,0,9,4,11,T,8,Fog-Rain,213
2013-2-4,52,45,37,42,41,38,96,82,68,30.22,30.08,29.93,10,8,4,9,3,11,T,6,,200
2013-2-5,48,45,41,45,42,40,100,93,86,29.98,29.90,29.86,10,8,4,20,10,26,0.39,7,Rain,201
2013-2-6,49,46,42,42,40,38,96,84,71,30.06,29.97,29.79,10,9,4,23,10,35,0.15,8,Rain,188
2013-2-7,50,39,27,40,35,28,100,73,46,30.20,30.02,29.85,10,9,4,17,5,24,0.01,5,Rain,202
2013-2-8,46,36,26,37,30,24,100,83,65,30.32,30.26,30.19,10,6,0,9,3,10,T,5,Fog,6
2013-2-9,50,39,28,38,32,28,100,78,56,30.35,30.29,30.26,10,6,0,7,2,9,0.00,6,Fog,116
2013-2-10,45,43,40,39,38,34,93,79,65,30.38,30.35,30.34,10,10,9,9,3,11,0.00,8,,16
2013-2-11,46,42,37,43,40,37,100,92,83,30.37,30.35,30.34,10,8,1,13,5,15,0.00,8,,203
2013-2-12,51,47,43,46,44,42,100,87,74,30.42,30.38,30.35,10,8,2,16,9,22,0.04,8,Rain,206
2013-2-13,48,40,31,45,39,31,100,89,77,30.53,30.44,30.36,10,6,0,14,7,19,0.01,5,Fog-Rain,210
2013-2-14,47,39,31,45,40,30,100,93,86,30.56,30.54,30.51,10,5,1,12,3,14,T,8,,206
2013-2-15,56,44,31,45,40,32,100,81,61,30.54,30.34,30.19,10,5,0,12,5,17,0.00,5,Fog,22
2013-2-16,51,42,32,43,37,32,100,83,65,30.23,30.20,30.19,10,7,0,22,11,31,0.01,6,Fog-Rain,226
2013-2-17,47,39,31,39,35,31,100,83,65,30.26,30.20,30.12,10,8,0,15,8,20,0.03,4,Fog-Rain,192
2013-2-18,46,38,30,37,34,30,100,83,65,30.10,29.97,29.76,10,4,0,15,5,19,0.01,7,Fog-Rain,196
2013-2-19,51,42,33,38,37,33,100,76,52,30.02,29.82,29.73,10,10,7,15,4,19,T,7,Rain,24
2013-2-20,45,37,28,39,34,28,100,88,76,30.07,30.03,29.99,10,5,0,15,5,19,0.12,7,Fog-Rain,200
2013-2-21,43,40,36,40,39,36,100,95,89,30.11,30.08,30.02,10,8,2,17,10,24,0.30,7,Rain,203
2013-2-22,47,42,36,44,38,33,96,86,76,30.09,29.91,29.76,10,6,2,29,14,39,1.31,7,Rain,203
2013-2-23,49,43,36,37,34,30,92,74,56,30.40,30.19,29.98,10,10,8,21,12,27,0.03,5,Rain,230
2013-2-24,49,44,38,37,35,32,92,77,61,30.41,30.25,29.96,10,10,8,24,11,30,T,8,Rain,202
2013-2-25,48,42,36,39,37,31,93,73,53,30.32,30.11,29.94,10,9,3,22,12,29,0.37,6,Rain,221
2013-2-26,48,41,34,36,35,33,100,80,60,30.37,30.30,30.21,10,10,7,15,8,19,0.01,7,Rain,205
2013-2-27,50,43,36,45,40,36,100,90,80,30.31,30.27,30.21,10,6,1,13,3,17,0.12,7,Rain,208
2013-2-28,52,48,44,52,46,43,100,95,89,30.35,30.24,30.19,10,4,1,15,6,20,1.13,8,Rain,227